Time;durP1;ratioP1;P1;durP2;ratioP2;P2;SDS_P1;SDS_P2;PMS_P1;PMS_P2;Temp;Humidity;BMP_temperature;BMP_pressure;BME280_temperature;BME280_humidity;BME280_pressure;Samples;Min_cycle;Max_cycle;Signal;HPM_P1;HPM_P2
2022/05/22 00:01:52;;;;;;;2.05;1.40;;;12.70;99.90;;;;;;4969764;28;20042;-84
2022/05/22 00:04:17;;;;;;;2.78;1.23;;;12.60;99.90;;;;;;4979506;28;20037;-84
2022/05/22 00:06:43;;;;;;;2.80;1.42;;;12.60;99.90;;;;;;4997395;28;20030;-84
2022/05/22 00:09:09;;;;;;;1.70;1.25;;;12.60;99.90;;;;;;4996071;28;20030;-84
2022/05/22 00:11:34;;;;;;;3.75;1.23;;;12.60;99.90;;;;;;4958684;28;20500;-84
2022/05/22 00:14:00;;;;;;;1.95;1.35;;;12.50;99.90;;;;;;4955871;28;20034;-84
2022/05/22 00:16:40;;;;;;;2.08;1.42;;;12.50;99.90;;;;;;4983497;28;20026;-84
2022/05/22 00:19:12;;;;;;;1.95;1.30;;;12.50;99.90;;;;;;4944996;28;20038;-84
2022/05/22 00:21:40;;;;;;;1.63;1.20;;;12.50;99.90;;;;;;4971562;28;20077;-84
2022/05/22 00:24:09;;;;;;;2.30;1.45;;;12.50;99.90;;;;;;4971243;28;20029;-84
2022/05/22 00:26:37;;;;;;;1.92;1.73;;;12.40;99.90;;;;;;4964653;28;20148;-84
2022/05/22 00:29:03;;;;;;;1.38;1.27;;;12.40;99.90;;;;;;4973992;28;20714;-84
2022/05/22 00:31:29;;;;;;;5.32;1.90;;;12.30;99.90;;;;;;4979503;28;20058;-84
2022/05/22 00:33:54;;;;;;;1.58;1.48;;;12.30;99.90;;;;;;4927596;28;20058;-85
2022/05/22 00:36:20;;;;;;;2.08;1.38;;;12.20;99.90;;;;;;4953022;28;20041;-85
2022/05/22 00:38:46;;;;;;;3.63;1.20;;;12.20;99.90;;;;;;5009251;28;20025;-84
2022/05/22 00:41:12;;;;;;;2.20;1.77;;;12.10;99.90;;;;;;4985769;28;20448;-84
2022/05/22 00:43:42;;;;;;;2.28;1.50;;;12.10;99.90;;;;;;4975174;28;20038;-84
2022/05/22 00:46:11;;;;;;;3.72;1.45;;;12.10;99.90;;;;;;4976682;28;20068;-84
2022/05/22 00:48:40;;;;;;;1.83;1.45;;;12.10;99.90;;;;;;4971785;28;20042;-84
2022/05/22 00:51:13;;;;;;;1.42;1.33;;;12.00;99.90;;;;;;4986230;28;20025;-84
2022/05/22 00:53:45;;;;;;;2.03;1.53;;;12.00;99.90;;;;;;4973862;28;20026;-85
2022/05/22 00:56:14;;;;;;;2.35;1.55;;;12.00;99.90;;;;;;4991238;28;20026;-84
2022/05/22 00:58:41;;;;;;;2.85;1.50;;;11.90;99.90;;;;;;4985341;28;20535;-84
2022/05/22 01:01:08;;;;;;;2.38;1.20;;;11.90;99.90;;;;;;4994684;28;20495;-85
2022/05/22 01:03:36;;;;;;;4.03;1.50;;;11.80;99.90;;;;;;4982130;28;20038;-84
2022/05/22 01:06:06;;;;;;;1.98;1.40;;;11.80;99.90;;;;;;4981974;28;20045;-85
2022/05/22 01:08:34;;;;;;;3.40;1.38;;;11.80;99.90;;;;;;4981966;28;20523;-84
2022/05/22 01:11:09;;;;;;;2.22;1.40;;;11.70;99.90;;;;;;4961913;28;20032;-85
2022/05/22 01:13:42;;;;;;;1.33;1.20;;;11.70;99.90;;;;;;4978204;28;20029;-84
2022/05/22 01:16:08;;;;;;;1.88;1.23;;;11.70;99.90;;;;;;4973354;28;20493;-85
2022/05/22 01:18:46;;;;;;;1.90;1.25;;;11.60;99.90;;;;;;4957143;28;20095;-85
2022/05/22 01:21:16;;;;;;;1.98;1.35;;;11.60;99.90;;;;;;4965918;28;20034;-85
2022/05/22 01:23:42;;;;;;;5.60;1.40;;;11.60;99.90;;;;;;4952283;28;20441;-85
2022/05/22 01:26:14;;;;;;;1.90;1.15;;;11.60;99.90;;;;;;4947748;28;20057;-85
2022/05/22 01:28:40;;;;;;;4.20;1.13;;;11.60;99.90;;;;;;4925831;28;20130;-85
2022/05/22 01:31:10;;;;;;;2.42;1.17;;;11.70;99.90;;;;;;4984233;28;20022;-85
2022/05/22 01:33:40;;;;;;;2.53;1.25;;;11.70;99.90;;;;;;5009354;28;20521;-85
2022/05/22 01:36:08;;;;;;;1.23;1.00;;;11.70;99.90;;;;;;4966241;28;20393;-85
2022/05/22 01:38:36;;;;;;;1.80;1.13;;;11.70;99.90;;;;;;4978640;28;20046;-84
2022/05/22 01:41:04;;;;;;;1.27;1.00;;;11.80;99.90;;;;;;4973693;28;20034;-84
2022/05/22 01:43:38;;;;;;;2.88;1.83;;;11.80;99.90;;;;;;4971590;28;20034;-85
2022/05/22 01:46:12;;;;;;;3.00;1.17;;;11.80;99.90;;;;;;4970325;28;20053;-84
2022/05/22 01:48:40;;;;;;;2.85;1.33;;;11.80;99.90;;;;;;4980839;28;20030;-85
2022/05/22 01:51:06;;;;;;;2.03;1.20;;;11.80;99.90;;;;;;4984475;28;20029;-85
2022/05/22 01:53:38;;;;;;;4.47;1.60;;;11.90;99.90;;;;;;4928399;28;20030;-85
2022/05/22 01:56:04;;;;;;;3.50;1.27;;;11.90;99.90;;;;;;4977539;28;20026;-85
2022/05/22 01:58:31;;;;;;;2.67;1.08;;;11.90;99.90;;;;;;4961498;28;20034;-84
2022/05/22 02:00:57;;;;;;;2.85;1.20;;;12.00;99.90;;;;;;4959628;28;20144;-84
2022/05/22 02:03:23;;;;;;;1.10;1.00;;;12.00;99.90;;;;;;4983470;28;20124;-85
2022/05/22 02:05:49;;;;;;;1.25;1.00;;;12.00;99.90;;;;;;4944345;28;20045;-84
2022/05/22 02:08:24;;;;;;;2.35;1.35;;;12.10;99.90;;;;;;4957819;28;20037;-85
2022/05/22 02:11:01;;;;;;;1.98;1.23;;;12.10;99.90;;;;;;4974448;28;20027;-85
2022/05/22 02:13:34;;;;;;;1.30;1.15;;;12.10;99.90;;;;;;4997973;28;20421;-84
2022/05/22 02:16:00;;;;;;;1.00;1.00;;;12.20;99.90;;;;;;5002879;28;20030;-85
2022/05/22 02:18:29;;;;;;;2.35;0.98;;;12.10;99.90;;;;;;4941512;28;20042;-85
2022/05/22 02:20:56;;;;;;;1.73;1.40;;;12.20;99.90;;;;;;4999687;28;20476;-85
2022/05/22 02:23:22;;;;;;;1.48;1.30;;;12.10;99.90;;;;;;5009419;28;20541;-86
2022/05/22 02:25:51;;;;;;;2.30;1.55;;;12.20;99.90;;;;;;4983623;28;20684;-85
2022/05/22 02:28:18;;;;;;;1.38;1.23;;;12.20;99.90;;;;;;4974730;28;20133;-85
2022/05/22 02:30:50;;;;;;;2.08;1.30;;;12.20;99.90;;;;;;4980925;28;20069;-85
2022/05/22 02:33:17;;;;;;;2.10;1.40;;;12.20;99.90;;;;;;4979389;28;20026;-85
2022/05/22 02:35:52;;;;;;;4.78;1.60;;;12.20;99.90;;;;;;4972362;28;20030;-85
2022/05/22 02:38:26;;;;;;;3.00;1.50;;;12.20;99.90;;;;;;4985647;28;20030;-83
2022/05/22 02:40:52;;;;;;;1.42;1.30;;;12.20;99.90;;;;;;4943666;28;20559;-85
2022/05/22 02:43:18;;;;;;;3.58;1.60;;;12.30;99.90;;;;;;4946668;28;20113;-84
2022/05/22 02:45:49;;;;;;;3.53;1.40;;;12.30;99.90;;;;;;4990946;28;20114;-85
2022/05/22 02:48:17;;;;;;;4.75;1.25;;;12.20;99.90;;;;;;4966493;28;20090;-84
2022/05/22 02:51:04;;;;;;;1.50;1.10;;;12.20;99.90;;;;;;5000828;28;20025;-85
2022/05/22 02:53:32;;;;;;;1.52;1.20;;;12.20;99.90;;;;;;4955836;28;20121;-85
2022/05/22 02:56:25;;;;;;;3.00;1.40;;;12.20;99.90;;;;;;4982399;28;20056;-84
2022/05/22 02:59:10;;;;;;;1.55;1.45;;;12.20;99.90;;;;;;4987245;28;20049;-85
2022/05/22 03:01:49;;;;;;;2.83;1.50;;;12.20;99.90;;;;;;5002360;28;20068;-85
2022/05/22 03:04:15;;;;;;;1.52;1.15;;;12.20;99.90;;;;;;4988775;28;20437;-85
2022/05/22 03:06:40;;;;;;;2.05;1.38;;;12.10;99.90;;;;;;4950271;28;20437;-84
2022/05/22 03:09:13;;;;;;;1.92;1.40;;;12.10;99.90;;;;;;4943651;28;20618;-85
2022/05/22 03:11:42;;;;;;;1.23;1.10;;;12.10;99.90;;;;;;4978348;28;20045;-85
2022/05/22 03:14:10;;;;;;;1.40;1.30;;;12.00;99.90;;;;;;4972635;28;20101;-85
2022/05/22 03:16:36;;;;;;;1.30;1.20;;;12.00;99.90;;;;;;4963924;28;20038;-85
2022/05/22 03:19:10;;;;;;;1.00;1.00;;;12.00;99.90;;;;;;4957349;28;20085;-85
2022/05/22 03:21:37;;;;;;;1.30;1.20;;;12.00;99.90;;;;;;4948986;28;20428;-85
2022/05/22 03:24:03;;;;;;;1.33;1.23;;;11.90;99.90;;;;;;4966830;28;20049;-84
2022/05/22 03:26:29;;;;;;;1.50;1.40;;;11.90;99.90;;;;;;4961875;28;20031;-85
2022/05/22 03:28:55;;;;;;;1.30;1.20;;;11.90;99.90;;;;;;4977646;28;20029;-85
2022/05/22 03:31:21;;;;;;;2.83;1.70;;;11.90;99.90;;;;;;4966026;28;20045;-85
2022/05/22 03:33:48;;;;;;;2.75;1.58;;;11.80;99.90;;;;;;4963779;28;20507;-84
2022/05/22 03:36:14;;;;;;;1.50;1.40;;;11.80;99.90;;;;;;4970619;28;20034;-85
2022/05/22 03:38:40;;;;;;;1.85;1.50;;;11.70;99.90;;;;;;4979004;28;20041;-84
2022/05/22 03:41:06;;;;;;;1.48;1.38;;;11.70;99.90;;;;;;4979772;28;20057;-85
2022/05/22 03:43:39;;;;;;;1.50;1.40;;;11.70;99.90;;;;;;4977643;28;20030;-85
2022/05/22 03:46:18;;;;;;;1.58;1.48;;;11.70;99.90;;;;;;4967051;28;20494;-85
2022/05/22 03:48:46;;;;;;;2.35;1.42;;;11.70;99.90;;;;;;4996989;28;20064;-85
2022/05/22 03:51:12;;;;;;;2.17;1.65;;;11.70;99.90;;;;;;4961763;28;20030;-84
2022/05/22 03:53:38;;;;;;;1.83;1.55;;;11.70;99.90;;;;;;4975216;28;20054;-86
2022/05/22 03:56:14;;;;;;;1.73;1.40;;;11.80;99.90;;;;;;4969994;28;20637;-84
2022/05/22 03:58:41;;;;;;;4.43;1.80;;;11.70;99.90;;;;;;4984936;28;20060;-85
2022/05/22 04:01:07;;;;;;;2.20;1.75;;;11.70;99.90;;;;;;4989395;28;20022;-85
2022/05/22 04:03:38;;;;;;;2.47;1.88;;;11.70;99.90;;;;;;4968010;28;20046;-85
2022/05/22 04:06:06;;;;;;;1.55;1.42;;;11.70;99.90;;;;;;5006613;28;20025;-85
2022/05/22 04:08:36;;;;;;;2.03;1.45;;;11.70;99.90;;;;;;4952873;28;20026;-85
2022/05/22 04:11:11;;;;;;;3.05;1.73;;;11.70;99.90;;;;;;4951842;28;20025;-85
2022/05/22 04:13:37;;;;;;;2.17;1.60;;;11.70;99.90;;;;;;5000175;28;20031;-85
2022/05/22 04:16:03;;;;;;;2.95;1.70;;;11.70;99.90;;;;;;4974195;28;20114;-84
2022/05/22 04:18:29;;;;;;;1.65;1.52;;;11.60;99.90;;;;;;4946259;28;20038;-86
2022/05/22 04:20:55;;;;;;;2.53;1.58;;;11.60;99.90;;;;;;4956754;28;20076;-85
2022/05/22 04:26:33;;;;;;;1.65;1.52;;;11.60;99.90;;;;;;4988394;28;20030;-85
2022/05/22 04:29:01;;;;;;;3.40;1.70;;;11.60;99.90;;;;;;4962928;28;20033;-85
2022/05/22 04:31:28;;;;;;;2.10;1.63;;;11.60;99.90;;;;;;4977324;28;20790;-85
2022/05/22 04:34:12;;;;;;;3.63;1.60;;;11.60;99.90;;;;;;4990613;28;20548;-85
2022/05/22 04:36:38;;;;;;;3.58;1.77;;;11.60;99.90;;;;;;4970207;28;20026;-85
2022/05/22 04:39:05;;;;;;;1.50;1.40;;;11.60;99.90;;;;;;4942677;28;20112;-85
2022/05/22 04:41:31;;;;;;;1.40;1.30;;;11.50;99.90;;;;;;4954302;28;20026;-85
2022/05/22 04:43:57;;;;;;;2.47;1.42;;;11.60;99.90;;;;;;4976882;28;20030;-85
2022/05/22 04:46:23;;;;;;;1.40;1.30;;;11.60;99.90;;;;;;4972108;28;20121;-86
2022/05/22 04:48:50;;;;;;;1.58;1.48;;;11.70;99.90;;;;;;4955746;28;20035;-85
2022/05/22 04:51:15;;;;;;;2.35;1.70;;;11.80;99.90;;;;;;4955015;28;20033;-85
2022/05/22 04:53:51;;;;;;;1.58;1.48;;;11.80;99.90;;;;;;4973459;28;20125;-85
2022/05/22 04:56:35;;;;;;;2.60;1.70;;;11.90;99.90;;;;;;4987702;28;20072;-85
2022/05/22 04:59:12;;;;;;;2.63;1.90;;;12.00;99.90;;;;;;4947585;28;20061;-85
2022/05/22 05:01:39;;;;;;;4.30;1.77;;;12.10;99.90;;;;;;4965015;28;20085;-85
2022/05/22 05:04:16;;;;;;;1.58;1.48;;;12.20;99.90;;;;;;4963098;28;20035;-86
2022/05/22 05:07:06;;;;;;;;;;;12.30;99.90;;;;;;5006600;28;20037;-85
2022/05/22 05:09:51;;;;;;;3.58;2.00;;;12.50;99.90;;;;;;5003985;28;19912;-85
2022/05/22 05:12:39;;;;;;;2.90;1.40;;;12.60;99.90;;;;;;4998567;28;20116;-85
2022/05/22 05:15:07;;;;;;;5.05;1.90;;;12.70;99.90;;;;;;4963536;28;20042;-85
2022/05/22 05:17:33;;;;;;;1.77;1.52;;;12.90;99.90;;;;;;4960695;28;20145;-85
2022/05/22 05:20:00;;;;;;;2.72;1.80;;;13.00;99.90;;;;;;4951975;28;20562;-85
2022/05/22 05:22:31;;;;;;;1.48;1.38;;;13.00;99.90;;;;;;4973825;28;20030;-85
2022/05/22 05:25:07;;;;;;;1.45;1.35;;;13.10;99.90;;;;;;4968514;28;20113;-85
2022/05/22 05:27:33;;;;;;;2.20;1.90;;;13.10;99.90;;;;;;4977470;28;20034;-85
2022/05/22 05:30:10;;;;;;;2.17;1.40;;;13.10;99.90;;;;;;4975262;28;20055;-85
2022/05/22 05:32:41;;;;;;;1.33;1.23;;;13.20;99.90;;;;;;4969964;28;20036;-84
2022/05/22 05:35:14;;;;;;;3.63;1.70;;;13.30;99.90;;;;;;4991993;28;20056;-85
2022/05/22 05:37:40;;;;;;;4.25;1.77;;;13.40;99.90;;;;;;4980559;28;20038;-84
2022/05/22 05:40:15;;;;;;;2.53;1.58;;;13.40;99.90;;;;;;4947996;28;20680;-85
2022/05/22 05:42:42;;;;;;;6.15;2.55;;;13.50;99.90;;;;;;4974893;28;20066;-85
2022/05/22 05:45:10;;;;;;;5.07;3.42;;;13.50;99.90;;;;;;4958839;28;20061;-85
2022/05/22 05:47:47;;;;;;;;;;;13.60;99.90;;;;;;4982150;28;20038;-85
2022/05/22 05:50:22;;;;;;;2.83;2.00;;;13.90;99.90;;;;;;4992669;28;19913;-85
2022/05/22 05:53:03;;;;;;;1.92;1.83;;;14.00;99.90;;;;;;4981365;28;20036;-85
2022/05/22 05:55:51;;;;;;;3.92;2.75;;;14.20;99.90;;;;;;5004270;28;20455;-86
2022/05/22 05:58:23;;;;;;;4.30;2.72;;;14.40;99.90;;;;;;4967333;28;20038;-85
2022/05/22 06:00:55;;;;;;;3.38;3.08;;;14.70;99.90;;;;;;4979443;28;20545;-85
2022/05/22 06:03:22;;;;;;;4.93;2.90;;;14.80;99.90;;;;;;4985514;28;20042;-85
2022/05/22 06:05:54;;;;;;;2.60;2.35;;;15.00;99.90;;;;;;4975950;28;20030;-84
2022/05/22 06:08:32;;;;;;;3.10;2.47;;;15.00;99.90;;;;;;4957901;28;20033;-86
2022/05/22 06:11:17;;;;;;;2.60;2.30;;;15.00;99.90;;;;;;4981586;28;20033;-86
2022/05/22 06:13:42;;;;;;;2.45;2.25;;;15.20;99.90;;;;;;4951673;28;20038;-85
2022/05/22 06:16:08;;;;;;;3.97;3.63;;;15.30;99.90;;;;;;5012602;28;20377;-86
2022/05/22 06:18:44;;;;;;;7.68;4.15;;;15.40;99.90;;;;;;4970346;28;20619;-85
2022/05/22 06:21:15;;;;;;;2.35;1.95;;;15.50;99.90;;;;;;4971062;28;20061;-86
2022/05/22 06:23:41;;;;;;;6.20;1.98;;;15.70;99.90;;;;;;4963885;28;20025;-85
2022/05/22 06:26:12;;;;;;;2.88;1.92;;;16.20;99.90;;;;;;4987412;28;20038;-85
2022/05/22 06:28:44;;;;;;;3.05;2.47;;;16.80;99.90;;;;;;5015446;28;20026;-85
2022/05/22 06:31:24;;;;;;;14.00;5.15;;;17.30;99.90;;;;;;4976276;28;20077;-85
2022/05/22 06:34:05;;;;;;;2.88;2.45;;;17.70;99.90;;;;;;4994718;28;20049;-86
2022/05/22 06:36:51;;;;;;;;;;;18.20;99.90;;;;;;4975495;28;20040;-86
2022/05/22 06:39:54;;;;;;;4.38;2.83;;;18.60;99.90;;;;;;4959460;28;19917;-86
2022/05/22 06:42:46;;;;;;;4.22;1.95;;;19.00;99.90;;;;;;4978511;28;20393;-86
2022/05/22 06:45:24;;;;;;;3.42;2.17;;;19.20;99.90;;;;;;4966300;28;20399;-86
2022/05/22 06:48:17;;;;;;;2.53;2.08;;;19.50;99.10;;;;;;4998357;28;20107;-86
2022/05/22 06:51:01;;;;;;;2.25;1.65;;;19.30;97.70;;;;;;4998772;28;20111;-85
2022/05/22 06:53:27;;;;;;;2.17;1.40;;;19.50;98.60;;;;;;4972173;28;20483;-86
2022/05/22 06:56:22;;;;;;;2.05;1.70;;;19.70;98.70;;;;;;4990686;28;20048;-85
2022/05/22 06:59:17;;;;;;;3.92;2.00;;;20.00;96.30;;;;;;4912530;28;20047;-85
2022/05/22 07:02:09;;;;;;;4.43;2.20;;;20.00;96.30;;;;;;4967351;28;20061;-86
2022/05/22 07:05:04;;;;;;;2.28;1.80;;;20.20;94.20;;;;;;4933381;28;20035;-86
2022/05/22 07:07:48;;;;;;;3.17;2.42;;;20.60;96.60;;;;;;5009701;28;20049;-86
2022/05/22 07:13:44;;;;;;;3.83;1.67;;;21.70;90.00;;;;;;4970877;28;20034;-85
2022/05/22 07:16:25;;;;;;;4.85;1.63;;;22.00;89.20;;;;;;4975603;28;20037;-85
2022/05/22 07:19:17;;;;;;;2.47;1.30;;;22.10;89.20;;;;;;4978648;28;20066;-85
2022/05/22 07:21:58;;;;;;;2.70;1.50;;;22.50;86.50;;;;;;4984689;28;20029;-85
2022/05/22 07:24:44;;;;;;;;;;;23.00;83.70;;;;;;4983393;28;20037;-85
2022/05/22 07:27:32;;;;;;;3.58;1.52;;;22.80;73.60;;;;;;5007672;28;19916;-85
2022/05/22 07:30:01;;;;;;;3.78;1.42;;;22.50;71.40;;;;;;4973960;28;20040;-86
2022/05/22 07:32:42;;;;;;;2.38;1.60;;;22.10;74.40;;;;;;4980883;28;20623;-86
2022/05/22 07:35:15;;;;;;;1.45;1.23;;;21.30;74.70;;;;;;4961779;28;20043;-86
2022/05/22 07:38:04;;;;;;;3.28;1.50;;;20.90;81.10;;;;;;4982659;28;20040;-85
2022/05/22 07:41:08;;;;;;;2.03;1.80;;;20.90;80.10;;;;;;4982875;28;20032;-85
2022/05/22 07:44:03;;;;;;;2.40;1.95;;;20.30;77.50;;;;;;4968290;28;20401;-85
2022/05/22 07:46:48;;;;;;;3.10;2.15;;;20.00;80.60;;;;;;5001116;28;20041;-85
2022/05/22 07:52:49;;;;;;;3.42;2.05;;;20.60;85.60;;;;;;4989132;28;20056;-86
2022/05/22 07:55:45;;;;;;;3.85;1.90;;;21.00;78.90;;;;;;4984994;28;20507;-84
2022/05/22 07:58:24;;;;;;;3.53;1.65;;;21.40;77.90;;;;;;4970497;28;20479;-86
2022/05/22 08:00:51;;;;;;;2.00;1.52;;;21.80;76.50;;;;;;4999115;28;20440;-86
2022/05/22 08:03:37;;;;;;;2.83;1.92;;;22.00;76.60;;;;;;4992593;28;20030;-85
2022/05/22 08:06:03;;;;;;;2.22;1.23;;;22.10;73.80;;;;;;4961606;28;20033;-85
2022/05/22 08:08:33;;;;;;;1.63;1.15;;;22.20;72.20;;;;;;4967408;28;20034;-86
2022/05/22 08:11:13;;;;;;;3.30;1.45;;;21.90;70.10;;;;;;4955929;28;20034;-85
2022/05/22 08:13:50;;;;;;;3.00;1.50;;;21.40;73.30;;;;;;4985047;28;20065;-85
2022/05/22 08:16:19;;;;;;;3.10;1.45;;;21.30;76.70;;;;;;4939438;28;20026;-85
2022/05/22 08:18:55;;;;;;;2.42;1.33;;;21.20;79.60;;;;;;4988166;28;20485;-85
2022/05/22 08:21:23;;;;;;;2.05;1.35;;;20.50;75.50;;;;;;4966957;28;20050;-84
2022/05/22 08:23:49;;;;;;;3.83;1.70;;;20.10;78.40;;;;;;4948921;28;20030;-85
2022/05/22 08:26:29;;;;;;;4.57;1.85;;;19.80;77.70;;;;;;4959802;28;20034;-85
2022/05/22 08:28:55;;;;;;;2.28;1.52;;;19.50;81.50;;;;;;4986842;28;20456;-85
2022/05/22 08:31:21;;;;;;;4.55;1.50;;;19.30;79.90;;;;;;4981373;28;20124;-86
2022/05/22 08:33:51;;;;;;;1.45;1.23;;;18.90;81.20;;;;;;4967676;28;20049;-86
2022/05/22 08:36:17;;;;;;;2.53;1.38;;;18.70;85.90;;;;;;4972681;28;20073;-86
2022/05/22 08:38:43;;;;;;;1.42;1.10;;;18.70;88.60;;;;;;4993336;28;20041;-85
2022/05/22 08:41:32;;;;;;;1.85;1.52;;;18.50;90.20;;;;;;4977113;28;20059;-86
2022/05/22 08:44:07;;;;;;;3.70;1.30;;;18.50;85.80;;;;;;5005330;28;20088;-85
2022/05/22 08:46:40;;;;;;;1.85;1.30;;;18.80;86.10;;;;;;4977368;28;20043;-85
2022/05/22 08:49:30;;;;;;;3.17;1.40;;;19.00;88.20;;;;;;4993033;28;20475;-86
2022/05/22 08:52:05;;;;;;;1.98;1.10;;;19.20;85.70;;;;;;4993318;28;20113;-85
2022/05/22 08:54:38;;;;;;;1.83;1.20;;;19.30;87.00;;;;;;5000314;28;20036;-85
2022/05/22 09:00:04;;;;;;;2.08;1.08;;;19.30;85.50;;;;;;4988210;28;20026;-86
2022/05/22 09:02:36;;;;;;;2.20;1.17;;;19.20;85.80;;;;;;4984845;28;20128;-85
2022/05/22 09:05:13;;;;;;;2.33;1.20;;;19.20;88.00;;;;;;4968851;28;20428;-86
2022/05/22 09:07:55;;;;;;;2.72;1.40;;;19.20;85.90;;;;;;4986732;28;20461;-85
2022/05/22 09:10:32;;;;;;;1.27;1.17;;;19.10;85.60;;;;;;5016214;28;20493;-86
2022/05/22 09:13:28;;;;;;;2.70;1.67;;;19.10;87.20;;;;;;4990691;28;20567;-85
2022/05/22 09:16:14;;;;;;;;;;;19.10;85.00;;;;;;4956755;28;20070;-86
2022/05/22 09:18:58;;;;;;;1.95;1.30;;;18.90;86.90;;;;;;4952289;28;20012;-85
2022/05/22 09:21:43;;;;;;;1.48;0.95;;;18.90;85.00;;;;;;4984629;28;20045;-85
2022/05/22 09:24:24;;;;;;;2.67;1.20;;;18.80;86.90;;;;;;5000051;28;20495;-85
2022/05/22 09:27:03;;;;;;;1.38;1.10;;;18.90;87.90;;;;;;4991506;28;20103;-85
2022/05/22 09:30:01;;;;;;;4.00;1.20;;;18.90;89.80;;;;;;4974530;28;20034;-85
2022/05/22 09:32:42;;;;;;;2.92;1.30;;;19.00;88.90;;;;;;4993337;28;20449;-85
2022/05/22 09:35:20;;;;;;;3.50;1.38;;;19.00;91.20;;;;;;4963583;28;20137;-85
2022/05/22 09:38:06;;;;;;;3.47;1.75;;;19.20;93.60;;;;;;4989313;28;20443;-84
2022/05/22 09:40:42;;;;;;;3.20;1.17;;;19.30;90.20;;;;;;4956434;28;20497;-86
2022/05/22 09:43:43;;;;;;;2.05;1.20;;;19.30;86.10;;;;;;5003646;28;20482;-86
2022/05/22 09:46:21;;;;;;;1.77;1.10;;;19.40;90.70;;;;;;4996752;28;20026;-86
2022/05/22 09:49:23;;;;;;;2.65;1.05;;;19.50;84.20;;;;;;5003983;28;20022;-85
2022/05/22 09:52:06;;;;;;;3.50;1.17;;;19.70;84.00;;;;;;4977451;28;20060;-85
2022/05/22 09:54:53;;;;;;;3.03;1.63;;;19.60;81.50;;;;;;4985827;28;20072;-85
2022/05/22 09:57:40;;;;;;;1.98;1.20;;;19.50;80.20;;;;;;4981701;28;20022;-87
2022/05/22 10:00:25;;;;;;;3.53;0.90;;;19.50;82.50;;;;;;4987441;28;20057;-86
2022/05/22 10:03:08;;;;;;;3.33;1.25;;;19.70;82.00;;;;;;5000225;28;20683;-86
2022/05/22 10:05:52;;;;;;;2.67;1.20;;;19.80;77.80;;;;;;4996084;28;20042;-85
2022/05/22 10:08:25;;;;;;;1.80;1.25;;;19.80;79.80;;;;;;4976554;28;20740;-85
2022/05/22 10:11:08;;;;;;;1.45;1.02;;;19.70;82.90;;;;;;4979714;28;20033;-86
2022/05/22 10:13:57;;;;;;;2.58;1.20;;;19.50;83.50;;;;;;4988786;28;20523;-86
2022/05/22 10:16:55;;;;;;;4.57;1.42;;;19.40;85.80;;;;;;5008204;28;20042;-85
2022/05/22 10:19:56;;;;;;;1.90;1.42;;;19.30;84.90;;;;;;4936940;28;20046;-84
2022/05/22 10:23:02;;;;;;;7.43;1.67;;;19.10;83.20;;;;;;4953772;28;20103;-85
2022/05/22 10:25:52;;;;;;;2.47;1.30;;;19.00;84.20;;;;;;5008913;28;20041;-87
2022/05/22 10:28:24;;;;;;;2.45;1.30;;;19.00;84.80;;;;;;4968356;28;20566;-85
2022/05/22 10:30:59;;;;;;;1.70;1.23;;;19.00;84.50;;;;;;4998654;28;20057;-86
2022/05/22 10:33:31;;;;;;;2.75;1.63;;;19.10;85.30;;;;;;4966960;28;20533;-85
2022/05/22 10:36:00;;;;;;;5.00;1.55;;;19.20;85.20;;;;;;4995322;28;20079;-86
2022/05/22 10:38:37;;;;;;;4.90;1.30;;;19.20;85.40;;;;;;4988542;28;20069;-85
2022/05/22 10:44:12;;;;;;;1.73;1.10;;;19.60;83.30;;;;;;4987051;28;20041;-86
2022/05/22 10:46:51;;;;;;;4.10;1.67;;;19.70;80.70;;;;;;4977542;28;20030;-86
2022/05/22 10:49:23;;;;;;;2.55;1.10;;;19.60;78.40;;;;;;4967533;28;20084;-85
2022/05/22 10:52:01;;;;;;;3.08;1.17;;;19.50;77.00;;;;;;5005028;28;20044;-86
2022/05/22 10:54:50;;;;;;;4.10;1.35;;;19.40;77.10;;;;;;5000343;28;20037;-85
2022/05/22 10:57:24;;;;;;;2.40;1.00;;;19.40;81.10;;;;;;4985537;28;20029;-85
2022/05/22 10:59:52;;;;;;;2.05;1.20;;;19.60;83.40;;;;;;4993948;28;20030;-85
2022/05/22 11:02:23;;;;;;;4.43;1.40;;;19.80;85.90;;;;;;4981621;28;20481;-85
2022/05/22 11:04:52;;;;;;;2.58;1.30;;;19.90;86.30;;;;;;5008826;28;20025;-86
2022/05/22 11:07:55;;;;;;;2.45;0.90;;;19.90;85.60;;;;;;4981798;28;20031;-86
2022/05/22 11:10:22;;;;;;;2.40;1.00;;;20.00;82.20;;;;;;4898409;29;20675;-86
2022/05/22 11:13:23;;;;;;;4.18;1.40;;;20.20;77.10;;;;;;4985951;28;20140;-86
2022/05/22 11:15:52;;;;;;;1.88;1.27;;;20.20;82.80;;;;;;4956436;28;20030;-86
2022/05/22 11:18:24;;;;;;;1.77;1.30;;;20.30;78.00;;;;;;4986171;28;20045;-86
2022/05/22 11:20:58;;;;;;;3.90;1.20;;;20.20;78.60;;;;;;4983713;28;20030;-86
2022/05/22 11:23:42;;;;;;;1.15;0.90;;;20.10;79.40;;;;;;4988073;28;20472;-87
2022/05/22 11:26:42;;;;;;;3.63;1.15;;;20.00;78.10;;;;;;4976810;28;20117;-86
2022/05/22 11:29:30;;;;;;;2.88;1.10;;;19.90;80.60;;;;;;4994014;28;20021;-86
2022/05/22 11:32:04;;;;;;;3.05;1.45;;;19.80;81.30;;;;;;4995326;28;20030;-85
2022/05/22 11:34:47;;;;;;;1.65;1.20;;;19.90;77.70;;;;;;4992522;28;20034;-85
2022/05/22 11:37:35;;;;;;;1.30;1.17;;;20.00;75.90;;;;;;4978962;28;20037;-85
2022/05/22 11:40:32;;;;;;;5.07;1.42;;;20.10;76.10;;;;;;4988833;28;20029;-86
2022/05/22 11:43:33;;;;;;;5.00;1.05;;;20.20;73.30;;;;;;4981928;28;20053;-85
2022/05/22 11:46:12;;;;;;;1.67;0.80;;;20.00;76.20;;;;;;4963146;28;20099;-86
2022/05/22 11:49:12;;;;;;;1.27;0.88;;;20.00;78.30;;;;;;5003872;28;20030;-85
2022/05/22 11:51:58;;;;;;;2.13;1.00;;;20.10;79.60;;;;;;4975532;28;20034;-85
2022/05/22 11:54:53;;;;;;;4.10;1.10;;;20.10;79.20;;;;;;4987916;28;20030;-85
2022/05/22 11:57:51;;;;;;;3.50;0.90;;;20.20;74.90;;;;;;4975080;28;20038;-85
2022/05/22 12:00:30;;;;;;;3.20;1.00;;;20.10;73.10;;;;;;4994968;28;20037;-86
2022/05/22 12:03:14;;;;;;;2.58;1.02;;;20.10;72.10;;;;;;4990652;28;20030;-85
2022/05/22 12:06:16;;;;;;;2.95;1.20;;;20.00;74.60;;;;;;4976724;28;20034;-85
2022/05/22 12:08:46;;;;;;;2.42;1.10;;;19.90;75.50;;;;;;5003740;28;20096;-86
2022/05/22 12:11:21;;;;;;;1.98;1.10;;;20.00;77.20;;;;;;4999857;28;20080;-85
2022/05/22 12:13:58;;;;;;;2.67;1.30;;;20.10;74.20;;;;;;5014332;28;20034;-85
2022/05/22 12:16:31;;;;;;;5.13;1.05;;;20.20;75.00;;;;;;4985524;28;20065;-85
2022/05/22 12:19:29;;;;;;;6.40;1.17;;;20.30;77.70;;;;;;4993799;28;20036;-85
2022/05/22 12:22:12;;;;;;;1.00;0.90;;;20.40;73.40;;;;;;4981418;28;20035;-85
2022/05/22 12:24:37;;;;;;;3.33;1.10;;;20.40;74.40;;;;;;5009737;28;20038;-85
2022/05/22 12:27:26;;;;;;;1.85;1.10;;;20.40;74.70;;;;;;4993607;28;20125;-85
2022/05/22 12:29:58;;;;;;;2.72;1.20;;;20.60;73.40;;;;;;4983112;28;20688;-85
2022/05/22 12:32:26;;;;;;;3.45;1.20;;;20.90;74.20;;;;;;5000474;28;20744;-85
2022/05/22 12:34:55;;;;;;;2.40;1.05;;;21.20;68.30;;;;;;4990361;28;20077;-86
2022/05/22 12:37:38;;;;;;;1.95;1.05;;;21.20;70.30;;;;;;4959554;28;20133;-85
2022/05/22 12:40:13;;;;;;;1.20;1.02;;;21.20;71.30;;;;;;4953000;28;20035;-85
2022/05/22 12:42:48;;;;;;;3.00;1.10;;;21.20;65.80;;;;;;4995322;28;20116;-86
2022/05/22 12:45:16;;;;;;;0.90;0.80;;;20.90;67.20;;;;;;5007884;28;20034;-85
2022/05/22 12:47:46;;;;;;;2.25;0.98;;;20.80;73.10;;;;;;4977345;28;20037;-87
2022/05/22 12:50:35;;;;;;;2.38;1.30;;;21.10;70.90;;;;;;4992078;28;20033;-85
2022/05/22 12:53:01;;;;;;;2.17;1.00;;;21.40;70.50;;;;;;5010278;28;20664;-85
2022/05/22 12:55:35;;;;;;;2.85;1.60;;;21.80;66.90;;;;;;4978012;28;20039;-86
2022/05/22 12:58:04;;;;;;;1.42;0.90;;;22.20;68.90;;;;;;4979309;28;20409;-85
2022/05/22 13:00:38;;;;;;;1.75;0.98;;;22.70;61.70;;;;;;4975944;28;20697;-85
2022/05/22 13:03:19;;;;;;;1.88;1.20;;;23.00;62.70;;;;;;5003208;28;20040;-85
2022/05/22 13:06:01;;;;;;;3.30;1.00;;;23.10;61.60;;;;;;4984913;28;20030;-85
2022/05/22 13:08:37;;;;;;;2.58;1.17;;;23.30;66.40;;;;;;4978319;28;20663;-85
2022/05/22 13:11:12;;;;;;;2.95;1.20;;;23.00;61.50;;;;;;4999099;28;20026;-85
2022/05/22 13:13:50;;;;;;;3.03;1.30;;;22.70;61.30;;;;;;4993277;28;20022;-85
2022/05/22 13:16:34;;;;;;;3.13;0.98;;;22.70;61.20;;;;;;4983524;28;20316;-85
2022/05/22 13:19:00;;;;;;;2.95;1.13;;;22.90;62.80;;;;;;4985911;28;20034;-85
2022/05/22 13:21:39;;;;;;;1.30;1.02;;;23.00;62.10;;;;;;4963111;28;20037;-85
2022/05/22 13:24:27;;;;;;;3.45;1.10;;;23.20;59.20;;;;;;4961076;28;20034;-85
2022/05/22 13:27:30;;;;;;;1.55;0.90;;;23.30;57.50;;;;;;4991626;28;20685;-85
2022/05/22 13:30:07;;;;;;;1.42;0.90;;;23.10;61.80;;;;;;4994770;28;20539;-85
2022/05/22 13:32:41;;;;;;;2.58;1.10;;;23.20;61.10;;;;;;4998149;28;20495;-85
2022/05/22 13:35:18;;;;;;;1.42;1.05;;;23.30;58.60;;;;;;4988517;28;20392;-85
2022/05/22 13:37:49;;;;;;;0.80;0.80;;;23.70;57.90;;;;;;4974772;28;20084;-85
2022/05/22 13:40:51;;;;;;;6.38;1.05;;;23.80;56.10;;;;;;4976580;28;20120;-84
2022/05/22 13:43:32;;;;;;;1.08;1.00;;;23.50;58.10;;;;;;4992224;28;20070;-85
2022/05/22 13:46:24;;;;;;;2.10;1.00;;;23.30;56.50;;;;;;4968935;28;20036;-85
2022/05/22 13:49:05;;;;;;;2.75;1.15;;;23.10;60.40;;;;;;4996704;28;20030;-85